Station: Tasman Island  

  Atmospheric Gas Attenuation - ITU Rec 676-11   ----------------- dB/100km -----------------
Date Time Temp RH % AH g/m3 Dew Point Wind Direction Speed kph Gust kph Barometer mB Rainfall Since 9am 24GHz 47GHz 76GHz 122GHz 134GHz 241GHz
05/05 13:30 11.5 93 9.61 10.4 22 52 1011.8 0 21.9 28.2 45.2 118.8 115.3 397.2
05/05 13:20 11.3 94 9.59 10.3 20 35 1011.8 0 21.8 28.3 45.2 118.9 115.3 397.2
05/05 13:10 11.4 93 9.55 10.3 32 48 1011.7 0 21.8 28.2 45.0 118.2 114.6 394.7
05/05 13:00 11.7 93 9.73 10.6 26 48 1011.7 0 22.1 28.4 45.6 119.8 116.7 402.1
05/05 12:50 12 90 9.59 10.4 32 46 1011.7 0 21.8 28.0 44.8 117.8 114.2 393.6
05/05 12:40 12.6 86 9.52 10.3 22 32 1011.7 0 21.6 27.7 44.2 116.1 112.4 387.2
05/05 12:30 13.4 84 9.77 10.8 15 30 1011.7 0 22.1 27.9 44.8 117.7 114.6 395.3
05/05 12:20 14.2 84 10.26 11.5 15 26 1011.7 0 23.1 28.5 46.4 122.0 120.2 414.9
05/05 12:10 13.9 84 10.07 11.2 13 19 1011.6 0 22.7 28.2 45.7 120.3 118.0 407.2
05/05 12:00 14.1 84 10.19 11.4 13 22 1011.6 0 23.0 28.4 46.1 121.3 119.4 412.0
05/05 11:50 14.1 83 10.07 11.2 9 13 1011.5 0 22.7 28.2 45.6 120.0 117.7 406.1
05/05 11:40 14 84 10.13 11.3 6 15 1011.5 0 22.9 28.3 45.9 120.8 118.7 409.5
05/05 11:30 13.8 84 10.01 11.1 6 22 1011.5 0 22.6 28.2 45.5 119.8 117.3 404.8
05/05 11:20 13.7 84 9.95 11 6 9 1011.4 0 22.5 28.1 45.3 119.2 116.7 402.3
05/05 11:10 13.4 85 9.88 10.9 7 15 1011.4 0 22.4 28.1 45.2 118.9 116.1 400.5
05/05 11:00 13.4 87 10.11 11.3 7 19 1011.4 0 22.9 28.5 46.2 121.5 119.3 411.7
05/05 10:50 13 89 10.09 11.2 7 15 1011.4 0 22.8 28.6 46.3 121.9 119.7 412.9
05/05 10:40 12.8 90 10.08 11.2 11 17 1011.3 0 22.8 28.6 46.4 122.1 119.9 413.4
05/05 10:30 12.4 91 9.94 11 13 24 1011.2 0 22.5 28.5 46.0 121.1 118.5 408.6
05/05 10:20 12.5 90 9.9 10.9 13 22 1011.1 0 22.5 28.4 45.8 120.5 117.8 406.1
05/05 10:10 12.7 88 9.8 10.7 9 17 1011 0 22.2 28.1 45.2 119.0 116.0 400.1
05/05 10:00 14.1 81 9.83 10.9 6 15 1011.1 0 22.2 27.8 44.6 117.2 114.4 394.4
05/05 09:50 13.7 81 9.59 10.5 7 17 1010.9 0 21.7 27.5 43.8 115.1 111.6 384.9
05/05 09:40 13.9 79 9.47 10.3 11 17 1010.7 0 21.5 27.2 43.2 113.5 109.7 378.1
05/05 09:30 14.3 79 9.71 10.7 7 19 1010.7 0 21.9 27.5 43.9 115.6 112.4 387.5
05/05 09:20 13.7 80 9.47 10.3 7 15 1010.5 0 21.5 27.2 43.3 113.8 110.0 379.0
05/05 09:10 13.4 84 9.77 10.7 9 17 1010.4 0 22.1 27.8 44.7 117.5 114.5 394.9
05/05 09:00 13.3 87 10.05 11.2 6 20 1010.3 0 22.7 28.3 45.9 120.8 118.6 409.0
05/05 08:50 12.8 88 9.86 10.8 4 9 1010.2 0 22.3 28.2 45.4 119.5 116.7 402.3
05/05 08:40 12.3 83 9.01 9.6 6 11 1010.2 0 20.5 26.9 42.1 110.6 105.6 363.6
05/05 08:30 12.5 82 9.02 9.5 7 17 1010.1 0 20.6 26.9 42.0 110.5 105.5 363.1
05/05 08:20 12.8 82 9.19 9.8 9 19 1010 0 20.9 27.0 42.6 111.9 107.4 369.8
05/05 08:10 12.3 81 8.8 9.1 9 13 1009.9 0 20.1 26.5 41.2 108.3 102.7 353.5
05/05 08:00 12.3 80 8.69 9 7 17 1009.7 0 19.9 26.3 40.8 107.1 101.2 348.3
05/05 07:50 12.2 81 8.74 9 7 13 1009.5 0 20.0 26.5 41.0 107.7 102.0 351.0
05/05 07:40 12.3 79 8.58 8.7 7 13 1009.4 0 19.6 26.2 40.3 105.8 99.7 343.0
05/05 07:30 12.3 81 8.8 9.1 6 17 1009.1 0 20.1 26.5 41.2 108.2 102.7 353.3
05/05 07:20 12.3 77 8.36 8.5 6 11 1009.1 0 19.2 25.8 39.4 103.4 96.8 332.6
05/05 07:10 12.2 77 8.31 8.3 9 17 1008.9 0 19.0 25.7 39.2 103.0 96.2 330.7
05/05 07:00 12.1 76 8.15 8 7 17 1008.7 0 18.7 25.5 38.6 101.4 94.2 323.6
05/05 06:50 12.2 76 8.2 8.1 11 15 1008.6 0 18.8 25.5 38.8 101.8 94.7 325.5
05/05 06:40 12.2 76 8.2 8.1 4 9 1008.3 0 18.8 25.5 38.8 101.7 94.7 325.4
05/05 06:30 12.3 75 8.14 8 7 20 1008.2 0 18.7 25.4 38.5 101.0 93.8 322.2
05/05 06:20 12.4 75 8.2 8.1 6 11 1008.1 0 18.8 25.5 38.7 101.5 94.4 324.5
05/05 06:10 12.4 76 8.3 8.3 7 15 1008 0 19.0 25.6 39.1 102.5 95.8 329.1
05/05 06:00 12.4 76 8.3 8.3 6 15 1008 0 19.0 25.6 39.1 102.5 95.8 329.1
05/05 05:50 12.5 75 8.25 8.2 2 6 1008 0 18.9 25.5 38.8 101.9 95.0 326.4
05/05 05:40 12.5 75 8.25 8.2 2 4 1007.9 0 18.9 25.5 38.8 101.8 95.0 326.3
05/05 05:30 12.6 75 8.3 8.3 4 13 1007.9 0 19.0 25.6 38.9 102.2 95.5 328.2
05/05 05:20 12.7 74 8.24 8.2 6 7 1007.9 0 18.9 25.4 38.7 101.5 94.6 325.1
05/05 05:10 12.7 73 8.13 8 6 9 1007.9 0 18.6 25.3 38.2 100.3 93.1 320.0
05/05 05:00 12.7 74 8.24 8.2 4 9 1007.8 0 18.9 25.4 38.7 101.5 94.6 325.0
05/05 04:50 12.8 72 8.07 8 9 13 1007.8 0 18.5 25.1 37.9 99.5 92.2 316.8
05/05 04:40 12.8 72 8.07 8 6 9 1007.7 0 18.5 25.1 37.9 99.5 92.2 316.8
05/05 04:30 12.8 75 8.4 8.5 9 15 1007.6 0 19.2 25.6 39.2 103.0 96.6 332.0
05/05 04:20 12.7 75 8.35 8.5 9 13 1007.6 0 19.1 25.6 39.1 102.6 96.0 330.1
05/05 04:10 12.5 75 8.25 8.2 9 11 1007.5 0 18.9 25.5 38.8 101.8 94.9 326.2
05/05 04:00 12.4 76 8.3 8.3 6 11 1007.3 0 19.0 25.6 39.0 102.4 95.7 328.9
05/05 03:50 12.4 74 8.09 7.9 4 7 1007.2 0 18.6 25.2 38.2 100.2 92.9 319.2
05/05 03:40 12.4 73 7.98 7.7 4 6 1007 0 18.3 25.1 37.7 99.0 91.5 314.1
05/05 03:30 12.7 74 8.24 8.2 7 17 1007 0 18.9 25.4 38.6 101.4 94.5 324.8
05/05 03:20 12.7 74 8.24 8.2 7 11 1007 0 18.9 25.4 38.6 101.4 94.5 324.8
05/05 03:10 12.8 72 8.07 8 11 17 1006.9 0 18.5 25.1 37.9 99.4 92.2 316.6
05/05 03:00 12.8 73 8.18 8.1 4 9 1007 0 18.7 25.3 38.3 100.6 93.6 321.6
05/05 02:50 13 72 8.17 8.2 2 6 1007.2 0 18.7 25.2 38.2 100.3 93.2 320.4
05/05 02:40 13 72 8.17 8.2 6 13 1007.2 0 18.7 25.2 38.2 100.3 93.2 320.4
05/05 02:30 13.2 72 8.27 8.3 7 20 1007.3 0 18.9 25.3 38.5 101.1 94.3 324.2
05/05 02:20 13.4 69 8.02 7.8 2 4 1007.4 0 18.4 24.9 37.4 98.2 90.8 312.0
05/05 02:10 13.7 65 7.7 7.4 4 6 1007.5 0 17.7 24.3 36.0 94.5 86.4 296.5
05/05 02:00 13.7 66 7.82 7.5 9 15 1007.4 0 17.9 24.5 36.5 95.8 87.9 301.8
05/05 01:50 13.8 65 7.74 7.3 13 15 1007.4 0 17.8 24.3 36.2 94.8 86.8 297.9
05/05 01:40 13.5 68 7.95 7.7 19 26 1007.5 0 18.2 24.7 37.1 97.4 89.8 308.5
05/05 01:30 13.2 70 8.04 7.9 17 28 1007.5 0 18.4 25.0 37.6 98.7 91.3 313.8
05/05 01:20 12.9 71 8 7.9 17 22 1007.5 0 18.4 25.0 37.6 98.6 91.2 313.1
05/05 01:10 13.1 70 7.99 7.9 24 33 1007.7 0 18.3 24.9 37.5 98.3 90.8 311.9
05/05 01:00 13.1 70 7.99 7.8 17 26 1007.6 0 18.3 24.9 37.5 98.3 90.8 311.9
05/05 00:50 12.9 69 7.78 7.5 17 22 1007.5 0 17.9 24.6 36.7 96.3 88.3 303.1
05/05 00:40 12.9 71 8 7.9 11 15 1007.5 0 18.4 25.0 37.6 98.6 91.2 313.1
05/05 00:30 12.9 72 8.12 8 7 20 1007.7 0 18.6 25.2 38.1 99.9 92.8 318.7
05/05 00:20 13.2 70 8.04 7.8 7 11 1007.7 0 18.4 25.0 37.6 98.7 91.4 313.8
05/05 00:10 13.3 70 8.09 7.9 11 17 1007.7 0 18.5 25.0 37.8 99.1 91.9 315.7
05/05 00:00 13.2 71 8.15 8.1 19 30 1007.7 0 18.7 25.1 38.1 99.9 92.8 318.8
04/05 23:50 13.3 70 8.09 7.9 20 26 1007.9 0 18.5 25.0 37.8 99.1 91.9 315.7
04/05 23:40 13.5 68 7.95 7.7 15 19 1007.9 0 18.2 24.7 37.1 97.4 89.9 308.6
04/05 23:30 13.6 66 7.77 7.4 22 39 1008 0 17.8 24.4 36.4 95.4 87.4 300.1
04/05 23:20 13.5 65 7.6 7.2 19 22 1008 0 17.5 24.2 35.8 93.8 85.4 292.9
04/05 23:10 13.3 68 7.86 7.5 22 33 1008 0 18.0 24.7 36.9 96.7 88.9 305.3
04/05 23:00 13.4 69 8.02 7.8 24 37 1008 0 18.4 24.9 37.5 98.3 90.9 312.2
04/05 22:50 13.5 68 7.95 7.7 30 35 1008 0 18.2 24.7 37.1 97.4 89.9 308.6
04/05 22:40 13.6 67 7.89 7.6 30 43 1008.1 0 18.1 24.6 36.9 96.7 89.0 305.6
04/05 22:30 13.4 68 7.91 7.6 26 39 1008.2 0 18.1 24.7 37.0 97.1 89.5 307.3
04/05 22:20 13.6 65 7.65 7.3 22 28 1008.3 0 17.6 24.3 35.9 94.2 85.9 294.8
04/05 22:10 13.6 65 7.65 7.3 30 35 1008.3 0 17.6 24.3 35.9 94.2 85.9 294.8
04/05 22:00 13.8 65 7.74 7.3 26 39 1008.2 0 17.8 24.3 36.2 94.9 86.8 298.1
04/05 21:50 13.7 65 7.7 7.2 26 35 1008.3 0 17.7 24.3 36.1 94.6 86.5 296.7
04/05 21:40 13.8 65 7.74 7.3 33 41 1008.3 0 17.8 24.3 36.2 94.9 86.9 298.1
04/05 21:30 13.9 65 7.79 7.4 26 43 1008.4 0 17.9 24.4 36.3 95.3 87.4 300.0
04/05 21:20 14.1 62 7.52 7.1 22 35 1008.4 0 17.3 23.9 35.2 92.3 83.7 287.3
04/05 21:10 14 66 7.96 7.7 30 39 1008.4 0 18.2 24.6 37.0 96.9 89.4 307.2
04/05 21:00 14 65 7.84 7.5 20 39 1008.4 0 18.0 24.4 36.5 95.7 87.9 301.8

Last Refresh: 05-May-2026 13:07:21

Bureau of Meteorology